createdAt,value
2023-01-06T00:01:30.328Z,99467.22
2023-01-06T00:04:00.199Z,99471.31
2023-01-06T00:06:31.317Z,99472.56
2023-01-06T00:09:02.779Z,99468.03
2023-01-06T00:11:33.812Z,99461.47
2023-01-06T00:14:03.014Z,99461.88
2023-01-06T00:16:31.915Z,99464.75
2023-01-06T00:19:01.771Z,99450.59
2023-01-06T00:21:31.395Z,99468.06
2023-01-06T00:24:04.097Z,99462.50
2023-01-06T00:26:34.146Z,99456.75
2023-01-06T00:29:02.869Z,99456.97
2023-01-06T00:31:31.638Z,99466.38
2023-01-06T00:34:00.385Z,99467.84
2023-01-06T00:36:29.098Z,99461.91
2023-01-06T00:38:57.971Z,99464.75
2023-01-06T00:41:44.117Z,99459.84
2023-01-06T00:44:14.195Z,99467.22
2023-01-06T00:46:42.882Z,99465.16
2023-01-06T00:49:11.555Z,99459.41
2023-01-06T00:51:41.750Z,99461.06
2023-01-06T00:54:13.079Z,99458.59
2023-01-06T00:56:43.831Z,99449.78
2023-01-06T00:59:17.698Z,99445.91
2023-01-06T01:01:48.252Z,99442.81
2023-01-06T01:04:18.542Z,99447.53
2023-01-06T01:06:49.446Z,99449.97
2023-01-06T01:09:22.788Z,99453.47
2023-01-06T01:12:09.753Z,99451.22
2023-01-06T01:14:47.543Z,99454.09
2023-01-06T01:17:21.445Z,99455.94
2023-01-06T01:19:52.440Z,99455.72
2023-01-06T01:22:21.553Z,99457.56
2023-01-06T01:24:50.343Z,99454.91
2023-01-06T01:27:19.989Z,99449.56
2023-01-06T01:29:50.125Z,99454.09
2023-01-06T01:32:18.815Z,99446.69
2023-01-06T01:34:47.514Z,99444.03
2023-01-06T01:37:16.332Z,99452.25
2023-01-06T01:39:45.011Z,99445.47
2023-01-06T01:42:19.057Z,99443.66
2023-01-06T01:45:03.229Z,99442.19
2023-01-06T01:47:44.180Z,99449.59
2023-01-06T01:50:28.463Z,99440.34
2023-01-06T01:53:04.517Z,99437.50
2023-01-06T01:55:35.156Z,99436.47
2023-01-06T01:58:09.679Z,99435.22
2023-01-06T02:00:42.415Z,99436.47
2023-01-06T02:03:14.157Z,99426.59
2023-01-06T02:05:48.767Z,99421.06
2023-01-06T02:08:29.454Z,99429.06
2023-01-06T02:10:58.564Z,99423.13
2023-01-06T02:13:27.825Z,99422.09
2023-01-06T02:16:11.541Z,99418.63
2023-01-06T02:19:00.132Z,99417.59
2023-01-06T02:21:56.781Z,99408.97
2023-01-06T02:25:15.848Z,99413.69
2023-01-06T02:28:25.772Z,99399.34
2023-01-06T02:31:41.735Z,99400.38
2023-01-06T02:34:24.714Z,99393.16
2023-01-06T02:37:07.208Z,99388.69
2023-01-06T02:39:50.685Z,99385.59
2023-01-06T02:42:33.804Z,99387.00
2023-01-06T02:45:12.133Z,99386.41
2023-01-06T02:47:57.484Z,99382.31
2023-01-06T02:50:40.527Z,99374.09
2023-01-06T02:53:21.406Z,99372.66
2023-01-06T02:55:54.817Z,99377.34
2023-01-06T02:58:36.175Z,99362.19
2023-01-06T03:01:18.061Z,99365.91
2023-01-06T03:03:51.504Z,99356.03
2023-01-06T03:06:29.220Z,99356.03
2023-01-06T03:08:59.819Z,99350.69
2023-01-06T03:11:34.574Z,99349.28
2023-01-06T03:14:11.167Z,99347.00
2023-01-06T03:16:40.572Z,99346.19
2023-01-06T03:19:11.185Z,99346.19
2023-01-06T03:21:45.735Z,99342.69
2023-01-06T03:24:15.600Z,99341.25
2023-01-06T03:26:48.616Z,99338.81
2023-01-06T03:29:20.033Z,99332.22
2023-01-06T03:32:02.739Z,99325.66
2023-01-06T03:35:01.484Z,99326.03
2023-01-06T03:37:43.144Z,99322.19
2023-01-06T03:40:30.075Z,99315.00
2023-01-06T03:43:16.255Z,99315.00
2023-01-06T03:45:58.822Z,99314.19
2023-01-06T03:48:54.397Z,99311.31
2023-01-06T03:51:42.668Z,99311.34
2023-01-06T03:54:33.624Z,99321.81
2023-01-06T03:57:09.572Z,99327.34
2023-01-06T03:59:44.554Z,99319.53
2023-01-06T04:02:16.653Z,99312.13
2023-01-06T04:04:45.621Z,99316.03
2023-01-06T04:07:16.016Z,99310.69
2023-01-06T04:09:44.934Z,99296.72
2023-01-06T04:12:31.917Z,99301.44
2023-01-06T04:15:00.767Z,99303.88
2023-01-06T04:17:29.630Z,99301.84
2023-01-06T04:19:58.450Z,99298.16
2023-01-06T04:22:29.362Z,99294.44
2023-01-06T04:24:59.068Z,99299.34
2023-01-06T04:27:27.777Z,99295.69
2023-01-06T04:29:56.724Z,99288.50
2023-01-06T04:32:25.386Z,99283.75
2023-01-06T04:34:54.592Z,99283.34
2023-01-06T04:37:23.447Z,99281.91
2023-01-06T04:39:53.557Z,99269.38
2023-01-06T04:42:22.228Z,99272.88
2023-01-06T04:44:50.963Z,99268.16
2023-01-06T04:47:19.719Z,99264.84
2023-01-06T04:49:50.450Z,99259.97
2023-01-06T04:52:19.109Z,99272.66
2023-01-06T04:54:47.768Z,99271.84
2023-01-06T04:57:18.004Z,99266.13
2023-01-06T04:59:47.852Z,99265.69
2023-01-06T05:02:17.610Z,99260.19
2023-01-06T05:04:48.081Z,99253.41
2023-01-06T05:07:17.151Z,99250.97
2023-01-06T05:09:45.977Z,99250.53
2023-01-06T05:12:14.634Z,99246.44
2023-01-06T05:14:47.083Z,99251.78
2023-01-06T05:17:16.005Z,99257.34
2023-01-06T05:19:45.550Z,99252.59
2023-01-06T05:22:14.323Z,99252.59
2023-01-06T05:24:43.701Z,99250.09
2023-01-06T05:27:13.072Z,99250.47
2023-01-06T05:29:42.027Z,99247.63
2023-01-06T05:32:12.326Z,99251.16
2023-01-06T05:34:41.322Z,99249.69
2023-01-06T05:37:10.017Z,99238.81
2023-01-06T05:39:38.783Z,99236.72
2023-01-06T05:42:07.557Z,99233.03
2023-01-06T05:44:38.145Z,99229.13
2023-01-06T05:47:08.886Z,99226.28
2023-01-06T05:49:39.022Z,99223.63
2023-01-06T05:52:07.784Z,99222.16
2023-01-06T05:54:36.811Z,99226.28
2023-01-06T05:57:07.933Z,99215.22
2023-01-06T05:59:36.644Z,99215.84
2023-01-06T06:02:06.755Z,99221.38
2023-01-06T06:04:35.582Z,99221.78
2023-01-06T06:07:06.008Z,99218.91
2023-01-06T06:09:34.803Z,99225.91
2023-01-06T06:12:03.514Z,99216.03
2023-01-06T06:14:32.310Z,99225.47
2023-01-06T06:17:01.216Z,99231.81
2023-01-06T06:19:29.895Z,99236.31
2023-01-06T06:21:58.598Z,99235.50
2023-01-06T06:24:28.786Z,99233.47
2023-01-06T06:26:57.623Z,99229.31
2023-01-06T06:29:26.321Z,99227.09
2023-01-06T06:31:55.146Z,99225.63
2023-01-06T06:34:23.970Z,99220.47
2023-01-06T06:36:52.756Z,99215.97
2023-01-06T06:39:22.170Z,99218.06
2023-01-06T06:41:52.451Z,99221.94
2023-01-06T06:44:21.312Z,99211.09
2023-01-06T06:46:50.137Z,99210.66
2023-01-06T06:49:18.892Z,99216.81
2023-01-06T06:51:48.671Z,99202.41
2023-01-06T06:54:17.603Z,99198.34
2023-01-06T06:56:46.364Z,99202.41
2023-01-06T06:59:16.501Z,99209.63
2023-01-06T07:01:45.292Z,99208.59
2023-01-06T07:04:14.283Z,99211.69
2023-01-06T07:06:43.130Z,99212.28
2023-01-06T07:09:11.852Z,99219.28
2023-01-06T07:11:40.613Z,99210.84
2023-01-06T07:14:09.333Z,99211.88
2023-01-06T07:16:39.462Z,99213.91
2023-01-06T07:19:10.560Z,99212.66
2023-01-06T07:21:39.638Z,99212.22
2023-01-06T07:24:09.066Z,99204.22
2023-01-06T07:26:37.798Z,99202.16
2023-01-06T07:29:06.522Z,99205.22
2023-01-06T07:31:35.377Z,99196.03
2023-01-06T07:34:05.598Z,99198.66
2023-01-06T07:36:34.368Z,99190.44
2023-01-06T07:39:03.601Z,99190.44
2023-01-06T07:41:33.488Z,99191.69
2023-01-06T07:44:02.763Z,99184.28
2023-01-06T07:46:31.617Z,99184.88
2023-01-06T07:49:00.533Z,99191.69
2023-01-06T07:51:30.734Z,99187.53
2023-01-06T07:53:59.654Z,99186.34
2023-01-06T07:56:28.389Z,99180.34
2023-01-06T07:58:57.117Z,99174.00
2023-01-06T08:01:26.154Z,99172.50
2023-01-06T08:03:54.977Z,99175.56
2023-01-06T08:06:23.705Z,99177.44
2023-01-06T08:08:53.929Z,99171.63
2023-01-06T08:11:22.780Z,99168.91
2023-01-06T08:13:51.630Z,99168.56
2023-01-06T08:16:20.468Z,99175.91
2023-01-06T08:18:49.288Z,99177.09
2023-01-06T08:21:18.091Z,99185.94
2023-01-06T08:23:46.971Z,99177.09
2023-01-06T08:26:19.263Z,99171.34
2023-01-06T08:28:48.461Z,99167.03
2023-01-06T08:31:20.335Z,99163.31
2023-01-06T08:33:50.347Z,99169.09
2023-01-06T08:36:23.328Z,99164.56
2023-01-06T08:38:52.210Z,99160.66
2023-01-06T08:41:22.403Z,99161.94
2023-01-06T08:43:52.492Z,99159.03
2023-01-06T08:46:22.287Z,99158.16
2023-01-06T08:48:51.213Z,99168.16
2023-01-06T08:51:23.824Z,99176.56
2023-01-06T08:53:53.468Z,99173.59
2023-01-06T08:56:26.072Z,99179.13
2023-01-06T08:58:57.396Z,99173.72
2023-01-06T09:01:29.250Z,99182.13
2023-01-06T09:04:01.297Z,99181.00
2023-01-06T09:06:31.158Z,99175.38
2023-01-06T09:09:01.308Z,99179.81
2023-01-06T09:11:31.572Z,99176.28
2023-01-06T09:14:00.489Z,99182.16
2023-01-06T09:16:29.472Z,99185.56
2023-01-06T09:18:58.298Z,99192.94
2023-01-06T09:21:27.260Z,99182.59
2023-01-06T09:23:55.966Z,99185.88
2023-01-06T09:26:24.746Z,99188.56
2023-01-06T09:28:54.911Z,99190.19
2023-01-06T09:31:23.628Z,99187.75
2023-01-06T09:33:52.350Z,99183.78
2023-01-06T09:36:23.421Z,99188.09
2023-01-06T09:38:52.382Z,99172.88
2023-01-06T09:42:01.061Z,99171.53
2023-01-06T09:44:33.700Z,99168.78
2023-01-06T09:47:04.795Z,99157.31
2023-01-06T09:49:47.703Z,99154.91
2023-01-06T09:52:34.047Z,99152.16
2023-01-06T09:55:08.057Z,99149.97
2023-01-06T09:57:45.825Z,99150.19
2023-01-06T10:00:35.137Z,99148.03
2023-01-06T10:03:04.946Z,99142.69
2023-01-06T10:05:49.727Z,99123.84
2023-01-06T10:08:34.809Z,99134.91
2023-01-06T10:11:14.371Z,99121.66
2023-01-06T10:14:10.830Z,99118.63
2023-01-06T10:16:59.158Z,99116.63
2023-01-06T10:19:45.994Z,99113.03
2023-01-06T10:22:29.272Z,99113.03
2023-01-06T10:25:07.521Z,99115.41
2023-01-06T10:27:41.457Z,99113.06
2023-01-06T10:30:24.900Z,99114.47
2023-01-06T10:32:56.408Z,99105.84
2023-01-06T10:35:29.462Z,99112.47
2023-01-06T10:38:04.484Z,99113.28
2023-01-06T10:40:33.358Z,99105.25
2023-01-06T10:43:06.882Z,99102.00
2023-01-06T10:45:41.184Z,99103.38
2023-01-06T10:48:15.536Z,99102.13
2023-01-06T10:50:48.651Z,99088.50
2023-01-06T10:53:18.445Z,99086.06
2023-01-06T10:55:53.607Z,99084.09
2023-01-06T10:58:34.423Z,99081.41
2023-01-06T11:01:10.539Z,99078.94
2023-01-06T11:03:42.838Z,99073.25
2023-01-06T11:06:23.188Z,99073.69
2023-01-06T11:08:52.097Z,99074.75
2023-01-06T11:11:27.981Z,99092.22
2023-01-06T11:14:00.884Z,99082.44
2023-01-06T11:16:33.430Z,99071.50
2023-01-06T11:19:07.799Z,99073.81
2023-01-06T11:21:43.521Z,99058.44
2023-01-06T11:24:20.298Z,99059.75
2023-01-06T11:26:55.489Z,99052.28
2023-01-06T11:29:31.899Z,99058.31
2023-01-06T11:32:06.938Z,99053.91
2023-01-06T11:34:37.167Z,99051.22
2023-01-06T11:37:06.683Z,99063.81
2023-01-06T11:39:39.461Z,99070.91
2023-01-06T11:42:15.842Z,99072.66
2023-01-06T11:44:45.303Z,99062.78
2023-01-06T11:47:19.471Z,99054.84
2023-01-06T11:49:54.346Z,99060.06
2023-01-06T11:52:27.185Z,99063.22
2023-01-06T11:55:03.570Z,99064.16
2023-01-06T11:57:43.491Z,99063.13
2023-01-06T12:00:38.509Z,99065.09
2023-01-06T12:03:18.620Z,99064.16
2023-01-06T12:05:59.092Z,99057.75
2023-01-06T12:08:37.035Z,99050.19
2023-01-06T12:11:14.295Z,99054.97
2023-01-06T12:14:00.478Z,99066.16
2023-01-06T12:16:41.894Z,99070.47
2023-01-06T12:19:18.540Z,99067.22
2023-01-06T12:21:48.631Z,99075.13
2023-01-06T12:24:22.456Z,99071.97
2023-01-06T12:26:52.974Z,99069.28
2023-01-06T12:29:23.663Z,99078.38
2023-01-06T12:32:09.778Z,99070.91
2023-01-06T12:34:45.996Z,99081.75
2023-01-06T12:37:28.204Z,99074.75
2023-01-06T12:40:07.803Z,99083.16
2023-01-06T12:42:47.849Z,99077.78
2023-01-06T12:45:23.351Z,99082.09
2023-01-06T12:47:55.659Z,99091.16
2023-01-06T12:50:35.644Z,99087.88
2023-01-06T12:53:21.044Z,99087.03
2023-01-06T12:56:12.307Z,99085.72
2023-01-06T12:58:56.455Z,99089.91
2023-01-06T13:01:37.640Z,99095.25
2023-01-06T13:04:45.275Z,99088.75
2023-01-06T13:07:31.005Z,99084.75
2023-01-06T13:10:17.069Z,99094.53
2023-01-06T13:12:59.064Z,99094.91
2023-01-06T13:15:31.131Z,99079.19
2023-01-06T13:18:13.752Z,99070.13
2023-01-06T13:20:48.565Z,99066.53
2023-01-06T13:23:50.666Z,99071.22
2023-01-06T13:26:44.598Z,99067.38
2023-01-06T13:29:35.124Z,99077.53
2023-01-06T13:32:27.993Z,99076.84
2023-01-06T13:35:36.028Z,99064.81
2023-01-06T13:38:30.821Z,99069.19
2023-01-06T13:41:04.407Z,99063.50
2023-01-06T13:43:47.240Z,99061.88
2023-01-06T13:46:21.245Z,99064.31
2023-01-06T13:48:55.472Z,99067.78
2023-01-06T13:51:32.367Z,99074.19
2023-01-06T13:54:03.229Z,99073.50
2023-01-06T13:56:40.222Z,99070.69
2023-01-06T13:59:25.993Z,99075.38
2023-01-06T14:01:59.791Z,99067.34
2023-01-06T14:04:49.513Z,99081.19
2023-01-06T14:07:34.223Z,99077.84
2023-01-06T14:10:05.570Z,99084.53
2023-01-06T14:12:38.007Z,99086.91
2023-01-06T14:15:22.518Z,99086.03
2023-01-06T14:17:51.716Z,99094.63
2023-01-06T14:20:31.189Z,99102.19
2023-01-06T14:23:04.690Z,99085.56
2023-01-06T14:25:40.935Z,99095.81
2023-01-06T14:28:29.863Z,99088.34
2023-01-06T15:37:48.976Z,99133.44
2023-01-06T15:40:23.167Z,99130.19
2023-01-06T15:42:52.034Z,99141.44
2023-01-06T15:45:32.392Z,99141.78
2023-01-06T15:48:11.568Z,99144.34
2023-01-06T15:50:42.104Z,99146.56
2023-01-06T15:53:24.755Z,99154.75
2023-01-06T15:55:56.306Z,99157.28
2023-01-06T15:58:28.857Z,99164.69
2023-01-06T16:01:02.973Z,99153.56
2023-01-06T16:03:34.006Z,99159.94
2023-01-06T16:06:14.448Z,99158.22
2023-01-06T16:08:44.327Z,99153.22
2023-01-06T16:11:42.041Z,99169.75
2023-01-06T16:14:28.862Z,99173.47
2023-01-06T16:17:07.214Z,99173.69
2023-01-06T16:19:45.564Z,99170.19
2023-01-06T16:22:31.984Z,99175.19
2023-01-06T16:25:04.390Z,99174.97
2023-01-06T16:27:33.450Z,99169.38
2023-01-06T16:30:23.409Z,99178.06
2023-01-06T16:32:53.848Z,99177.25
2023-01-06T16:35:25.803Z,99179.81
2023-01-06T16:37:56.495Z,99177.72
2023-01-06T16:40:28.579Z,99167.69
2023-01-06T16:43:00.739Z,99166.38
2023-01-06T16:45:38.286Z,99175.59
2023-01-06T16:48:08.367Z,99184.66
2023-01-06T16:50:44.902Z,99192.69
2023-01-06T16:53:21.042Z,99186.13
2023-01-06T16:55:54.380Z,99191.06
2023-01-06T16:58:26.499Z,99200.56
2023-01-06T17:00:58.430Z,99195.22
2023-01-06T17:03:31.529Z,99198.50
2023-01-06T17:06:00.957Z,99196.41
2023-01-06T17:08:35.875Z,99195.22
2023-01-06T17:11:16.640Z,99197.16
2023-01-06T17:13:58.663Z,99201.91
2023-01-06T17:16:32.258Z,99206.44
2023-01-06T17:19:06.719Z,99211.81
2023-01-06T17:21:37.940Z,99207.28
2023-01-06T17:24:17.992Z,99207.69
2023-01-06T17:26:52.847Z,99214.31
2023-01-06T17:29:23.895Z,99215.97
2023-01-06T17:31:57.133Z,99219.69
2023-01-06T17:34:33.851Z,99218.13
2023-01-06T17:37:12.141Z,99229.03
2023-01-06T17:39:45.784Z,99230.88
2023-01-06T17:42:30.740Z,99230.06
2023-01-06T17:45:01.902Z,99232.50
2023-01-06T17:47:43.128Z,99222.84
2023-01-06T17:50:31.515Z,99233.84
2023-01-06T17:53:33.973Z,99234.16
2023-01-06T17:56:08.195Z,99238.53
2023-01-06T17:58:40.481Z,99243.06
2023-01-06T18:01:18.640Z,99247.63
2023-01-06T18:03:48.923Z,99242.28
2023-01-06T18:06:29.538Z,99252.97
2023-01-06T18:09:12.526Z,99253.78
2023-01-06T18:11:48.811Z,99258.84
2023-01-06T18:14:29.128Z,99259.81
2023-01-06T18:17:06.447Z,99253.44
2023-01-06T18:19:38.740Z,99256.47
2023-01-06T18:22:17.884Z,99256.09
2023-01-06T18:24:48.790Z,99257.50
2023-01-06T18:27:29.401Z,99262.03
2023-01-06T18:30:17.508Z,99262.50
2023-01-06T18:32:46.911Z,99266.22
2023-01-06T18:35:20.546Z,99272.72
2023-01-06T18:37:51.035Z,99268.00
2023-01-06T18:40:24.782Z,99269.47
2023-01-06T18:42:57.576Z,99269.47
2023-01-06T18:45:29.269Z,99270.28
2023-01-06T18:48:02.484Z,99270.28
2023-01-06T18:50:37.771Z,99274.97
2023-01-06T18:53:23.846Z,99270.44
2023-01-06T18:55:55.284Z,99278.88
2023-01-06T18:58:46.419Z,99267.38
2023-01-06T19:01:23.176Z,99261.44
2023-01-06T19:04:02.287Z,99268.19
2023-01-06T19:06:48.388Z,99269.00
2023-01-06T19:09:35.990Z,99275.91
2023-01-06T19:12:26.017Z,99298.28
2023-01-06T19:14:59.589Z,99301.53
2023-01-06T19:17:34.428Z,99303.63
2023-01-06T19:20:18.926Z,99289.22
2023-01-06T19:22:49.541Z,99297.25
2023-01-06T19:25:33.254Z,99297.66
2023-01-06T19:28:06.216Z,99298.69
2023-01-06T19:30:44.610Z,99291.56
2023-01-06T19:33:36.761Z,99295.91
2023-01-06T19:36:44.044Z,99304.09
2023-01-06T19:39:31.652Z,99303.44
2023-01-06T19:42:16.159Z,99309.19
2023-01-06T19:44:45.844Z,99309.25
2023-01-06T19:47:20.705Z,99311.53
2023-01-06T19:50:04.970Z,99317.53
2023-01-06T19:52:37.541Z,99313.63
2023-01-06T19:55:33.407Z,99309.75
2023-01-06T19:58:13.722Z,99308.97
2023-01-06T20:00:49.253Z,99311.28
2023-01-06T20:03:31.382Z,99303.09
2023-01-06T20:06:00.315Z,99308.22
2023-01-06T20:08:30.877Z,99314.38
2023-01-06T20:11:00.394Z,99318.13
2023-01-06T20:13:30.215Z,99316.28
2023-01-06T20:15:59.564Z,99321.00
2023-01-06T20:18:29.748Z,99337.03
2023-01-06T20:21:00.408Z,99331.69
2023-01-06T20:23:43.464Z,99330.88
2023-01-06T20:26:12.186Z,99339.88
2023-01-06T20:28:41.284Z,99348.53
2023-01-06T20:31:10.032Z,99339.88
2023-01-06T20:33:40.506Z,99340.53
2023-01-06T20:36:09.686Z,99336.22
2023-01-06T20:38:38.371Z,99343.00
2023-01-06T20:41:07.278Z,99336.41
2023-01-06T20:43:36.411Z,99338.25
2023-01-06T20:46:05.719Z,99350.00
2023-01-06T20:48:34.461Z,99348.59
2023-01-06T20:51:05.334Z,99349.38
2023-01-06T20:53:33.954Z,99352.25
2023-01-06T20:56:02.617Z,99348.97
2023-01-06T20:58:32.667Z,99345.28
2023-01-06T21:01:02.019Z,99351.03
2023-01-06T21:03:30.993Z,99358.19
2023-01-06T21:05:59.816Z,99358.81
2023-01-06T21:08:33.065Z,99360.44
2023-01-06T21:11:01.734Z,99358.81
2023-01-06T21:13:30.605Z,99360.03
2023-01-06T21:15:59.234Z,99356.34
2023-01-06T21:18:27.961Z,99350.84
2023-01-06T21:20:57.078Z,99352.88
2023-01-06T21:23:25.781Z,99356.34
2023-01-06T21:25:56.832Z,99353.09
2023-01-06T21:28:25.717Z,99349.81
2023-01-06T21:30:54.559Z,99352.50
2023-01-06T21:33:23.978Z,99359.25
2023-01-06T21:35:52.924Z,99356.78
2023-01-06T21:38:21.937Z,99352.69
2023-01-06T21:40:51.730Z,99356.41
2023-01-06T21:43:20.794Z,99351.06
2023-01-06T21:45:49.523Z,99346.97
2023-01-06T21:48:18.811Z,99351.09
2023-01-06T21:50:47.622Z,99346.16
2023-01-06T21:53:16.321Z,99354.56
2023-01-06T21:55:45.106Z,99350.88
2023-01-06T21:58:13.841Z,99347.59
2023-01-06T22:00:44.199Z,99353.56
2023-01-06T22:03:13.705Z,99347.84
2023-01-06T22:05:43.477Z,99360.56
2023-01-06T22:08:12.837Z,99362.59
2023-01-06T22:10:44.719Z,99352.16
2023-01-06T22:13:19.917Z,99352.75
2023-01-06T22:15:50.985Z,99350.94
2023-01-06T22:18:20.372Z,99354.63
2023-01-06T22:20:49.151Z,99352.16
2023-01-06T22:23:22.366Z,99349.50
2023-01-06T22:25:51.494Z,99352.16
2023-01-06T22:28:20.425Z,99355.66
2023-01-06T22:30:51.617Z,99363.03
2023-01-06T22:33:20.308Z,99361.38
2023-01-06T22:35:48.958Z,99357.50
2023-01-06T22:38:17.622Z,99359.31
2023-01-06T22:40:47.760Z,99360.16
2023-01-06T22:43:16.489Z,99369.59
2023-01-06T22:45:51.683Z,99368.34
2023-01-06T22:48:22.070Z,99369.81
2023-01-06T22:50:58.428Z,99371.25
2023-01-06T22:53:28.228Z,99370.41
2023-01-06T22:56:01.909Z,99369.41
2023-01-06T22:58:31.480Z,99376.16
2023-01-06T23:01:00.135Z,99371.84
2023-01-06T23:03:30.482Z,99374.31
2023-01-06T23:06:00.927Z,99373.69
2023-01-06T23:08:32.093Z,99376.97
2023-01-06T23:11:03.688Z,99366.31
2023-01-06T23:13:33.391Z,99364.88
2023-01-06T23:16:04.438Z,99364.06
2023-01-06T23:18:37.128Z,99364.47
2023-01-06T23:21:09.797Z,99368.59
2023-01-06T23:23:40.940Z,99373.69
2023-01-06T23:26:13.625Z,99366.13
2023-01-06T23:28:43.468Z,99362.22
2023-01-06T23:31:14.913Z,99364.28
2023-01-06T23:33:47.752Z,99364.28
2023-01-06T23:36:19.390Z,99368.75
2023-01-06T23:38:48.441Z,99366.31
2023-01-06T23:41:19.739Z,99362.44
2023-01-06T23:43:48.938Z,99363.03
2023-01-06T23:46:20.955Z,99363.44
2023-01-06T23:48:51.293Z,99356.28
2023-01-06T23:51:20.434Z,99353.63
2023-01-06T23:53:49.569Z,99349.28
2023-01-06T23:56:21.107Z,99350.75
2023-01-06T23:58:53.401Z,99353.41
